Time,TemperatureF,DewpointF,PressureIn,WindDirection,WindDirectionDegrees,WindSpeedMPH,WindSpeedGustMPH,Humidity,HourlyPrecipIn,Conditions,Clouds,dailyrainin,SoftwareType,DateUTC
2013-09-05 00:01:00,68.2,59.0,29.18,WSW,247,5.0,7.0,72,0.00,,,0.00,Rainwise IP-100,2013-09-05 04:01:00,
2013-09-05 00:06:00,67.6,60.0,29.17,South,180,4.0,12.0,76,0.00,,,0.00,Rainwise IP-100,2013-09-05 04:06:00,
2013-09-05 00:11:00,67.3,60.0,29.17,WSW,247,2.0,10.0,77,0.00,,,0.00,Rainwise IP-100,2013-09-05 04:11:00,
2013-09-05 00:13:00,67.3,60.0,29.18,WSW,247,2.0,10.0,77,0.00,,,0.00,Rainwise IP-100,2013-09-05 04:13:00,
2013-09-05 00:18:00,67.1,60.0,29.18,SW,225,2.0,10.0,78,0.00,,,0.00,Rainwise IP-100,2013-09-05 04:18:00,
2013-09-05 00:21:00,67.1,60.0,29.18,West,270,2.0,10.0,78,0.00,,,0.00,Rainwise IP-100,2013-09-05 04:21:00,
2013-09-05 00:26:00,67.1,60.0,29.18,WSW,247,4.0,11.0,78,0.00,,,0.00,Rainwise IP-100,2013-09-05 04:26:00,
2013-09-05 00:31:00,67.3,60.0,29.18,West,270,1.0,11.0,79,0.00,,,0.00,Rainwise IP-100,2013-09-05 04:31:00,
2013-09-05 00:34:00,67.3,61.0,29.18,NW,315,2.0,11.0,80,0.00,,,0.00,Rainwise IP-100,2013-09-05 04:34:00,
2013-09-05 00:39:00,67.3,60.0,29.18,West,270,1.0,8.0,79,0.00,,,0.00,Rainwise IP-100,2013-09-05 04:39:00,
2013-09-05 00:44:00,67.3,61.0,29.18,West,270,7.0,11.0,80,0.00,,,0.00,Rainwise IP-100,2013-09-05 04:44:00,
2013-09-05 00:49:00,67.3,61.0,29.18,West,270,6.0,12.0,80,0.00,,,0.00,Rainwise IP-100,2013-09-05 04:49:00,
2013-09-05 00:50:00,67.3,61.0,29.18,West,270,4.0,12.0,80,0.00,,,0.00,Rainwise IP-100,2013-09-05 04:50:00,
2013-09-05 00:55:00,67.3,61.0,29.19,WNW,292,3.0,13.0,80,0.00,,,0.00,Rainwise IP-100,2013-09-05 04:55:00,
2013-09-05 01:00:00,67.3,61.0,29.19,SW,225,7.0,11.0,80,0.00,,,0.00,Rainwise IP-100,2013-09-05 05:00:00,
2013-09-05 01:05:00,67.0,61.0,29.19,West,270,6.0,9.0,81,0.00,,,0.00,Rainwise IP-100,2013-09-05 05:05:00,
2013-09-05 01:10:00,66.7,61.0,29.19,West,270,1.0,11.0,83,0.00,,,0.00,Rainwise IP-100,2013-09-05 05:10:00,
2013-09-05 01:15:00,66.3,61.0,29.19,WNW,292,4.0,9.0,85,0.00,,,0.00,Rainwise IP-100,2013-09-05 05:15:00,
2013-09-05 01:20:00,65.9,61.0,29.19,West,270,2.0,8.0,86,0.00,,,0.00,Rainwise IP-100,2013-09-05 05:20:00,
2013-09-05 01:25:00,65.4,61.0,29.19,SW,225,2.0,6.0,88,0.00,,,0.00,Rainwise IP-100,2013-09-05 05:25:00,
2013-09-05 01:30:00,64.9,61.0,29.18,West,270,2.0,4.0,89,0.00,,,0.00,Rainwise IP-100,2013-09-05 05:30:00,
2013-09-05 01:35:00,64.7,61.0,29.18,SSW,202,1.0,6.0,90,0.00,,,0.00,Rainwise IP-100,2013-09-05 05:35:00,
2013-09-05 01:40:00,64.6,62.0,29.19,West,270,1.0,4.0,91,0.00,,,0.00,Rainwise IP-100,2013-09-05 05:40:00,
2013-09-05 01:45:00,64.4,62.0,29.19,SW,225,4.0,5.0,93,0.00,,,0.00,Rainwise IP-100,2013-09-05 05:45:00,
2013-09-05 01:50:00,64.2,62.0,29.19,WSW,247,2.0,6.0,93,0.00,,,0.00,Rainwise IP-100,2013-09-05 05:50:00,
2013-09-05 01:55:00,64.1,62.0,29.18,WSW,247,1.0,5.0,93,0.00,,,0.00,Rainwise IP-100,2013-09-05 05:55:00,
2013-09-05 02:00:00,64.0,62.0,29.18,West,270,2.0,5.0,94,0.00,,,0.00,Rainwise IP-100,2013-09-05 06:00:00,
2013-09-05 02:05:00,63.9,62.0,29.18,SW,225,3.0,4.0,94,0.00,,,0.00,Rainwise IP-100,2013-09-05 06:05:00,
2013-09-05 02:10:00,64.1,62.0,29.18,WSW,247,2.0,6.0,93,0.00,,,0.00,Rainwise IP-100,2013-09-05 06:10:00,
2013-09-05 02:15:00,64.2,62.0,29.19,West,270,1.0,4.0,93,0.00,,,0.00,Rainwise IP-100,2013-09-05 06:15:00,
2013-09-05 02:20:00,64.2,61.0,29.19,NW,315,2.0,5.0,92,0.00,,,0.00,Rainwise IP-100,2013-09-05 06:20:00,
2013-09-05 02:25:00,64.2,61.0,29.19,NW,315,5.0,7.0,91,0.00,,,0.00,Rainwise IP-100,2013-09-05 06:25:00,
2013-09-05 02:30:00,64.3,59.0,29.19,NW,315,4.0,11.0,85,0.00,,,0.00,Rainwise IP-100,2013-09-05 06:30:00,
2013-09-05 02:35:00,64.2,59.0,29.19,SW,225,4.0,7.0,85,0.00,,,0.00,Rainwise IP-100,2013-09-05 06:35:00,
2013-09-05 02:40:00,63.9,59.0,29.19,WNW,292,6.0,9.0,84,0.00,,,0.00,Rainwise IP-100,2013-09-05 06:40:00,
2013-09-05 02:45:00,63.7,59.0,29.19,WNW,292,2.0,7.0,84,0.00,,,0.00,Rainwise IP-100,2013-09-05 06:45:00,
2013-09-05 02:50:00,63.4,59.0,29.19,WNW,292,4.0,6.0,85,0.00,,,0.00,Rainwise IP-100,2013-09-05 06:50:00,
2013-09-05 02:55:00,63.2,58.0,29.19,NW,315,5.0,6.0,85,0.00,,,0.00,Rainwise IP-100,2013-09-05 06:55:00,
2013-09-05 03:00:00,63.2,58.0,29.19,NW,315,4.0,9.0,85,0.00,,,0.00,Rainwise IP-100,2013-09-05 07:00:00,
2013-09-05 03:05:00,63.1,59.0,29.19,WNW,292,4.0,7.0,86,0.00,,,0.00,Rainwise IP-100,2013-09-05 07:05:00,
2013-09-05 03:10:00,62.9,59.0,29.19,NW,315,5.0,9.0,86,0.00,,,0.00,Rainwise IP-100,2013-09-05 07:10:00,
2013-09-05 03:15:00,62.6,58.0,29.19,NW,315,4.0,12.0,86,0.00,,,0.00,Rainwise IP-100,2013-09-05 07:15:00,
2013-09-05 03:20:00,62.4,58.0,29.19,NW,315,3.0,6.0,86,0.00,,,0.00,Rainwise IP-100,2013-09-05 07:20:00,
2013-09-05 03:25:00,62.3,57.0,29.19,NW,315,5.0,8.0,86,0.00,,,0.00,Rainwise IP-100,2013-09-05 07:25:00,
2013-09-05 03:30:00,62.0,58.0,29.19,NW,315,4.0,8.0,87,0.00,,,0.00,Rainwise IP-100,2013-09-05 07:30:00,
2013-09-05 03:35:00,61.8,57.0,29.19,WNW,292,2.0,8.0,87,0.00,,,0.00,Rainwise IP-100,2013-09-05 07:35:00,
2013-09-05 03:40:00,61.6,57.0,29.20,NW,315,7.0,9.0,87,0.00,,,0.00,Rainwise IP-100,2013-09-05 07:40:00,
2013-09-05 03:45:00,61.6,57.0,29.20,West,270,2.0,8.0,87,0.00,,,0.00,Rainwise IP-100,2013-09-05 07:45:00,
2013-09-05 03:50:00,61.4,57.0,29.20,WNW,292,2.0,3.0,87,0.00,,,0.00,Rainwise IP-100,2013-09-05 07:50:00,
2013-09-05 03:55:00,61.2,56.0,29.20,NW,315,2.0,6.0,86,0.00,,,0.00,Rainwise IP-100,2013-09-05 07:55:00,
2013-09-05 04:00:00,61.3,56.0,29.21,NW,315,2.0,8.0,84,0.00,,,0.00,Rainwise IP-100,2013-09-05 08:00:00,
2013-09-05 04:05:00,61.2,56.0,29.21,WNW,292,2.0,6.0,84,0.00,,,0.00,Rainwise IP-100,2013-09-05 08:05:00,
2013-09-05 04:10:00,61.2,56.0,29.21,NW,315,2.0,7.0,83,0.00,,,0.00,Rainwise IP-100,2013-09-05 08:10:00,
2013-09-05 04:15:00,60.9,56.0,29.21,WNW,292,3.0,5.0,83,0.00,,,0.00,Rainwise IP-100,2013-09-05 08:15:00,
2013-09-05 04:20:00,60.9,56.0,29.22,WNW,292,1.0,6.0,84,0.00,,,0.00,Rainwise IP-100,2013-09-05 08:20:00,
2013-09-05 04:25:00,60.6,55.0,29.21,WNW,292,4.0,5.0,83,0.00,,,0.00,Rainwise IP-100,2013-09-05 08:25:00,
2013-09-05 04:30:00,60.4,56.0,29.22,WNW,292,3.0,6.0,85,0.00,,,0.00,Rainwise IP-100,2013-09-05 08:30:00,
2013-09-05 04:35:00,59.9,55.0,29.22,WNW,292,2.0,6.0,85,0.00,,,0.00,Rainwise IP-100,2013-09-05 08:35:00,
2013-09-05 04:40:00,59.7,55.0,29.22,West,270,2.0,8.0,86,0.00,,,0.00,Rainwise IP-100,2013-09-05 08:40:00,
2013-09-05 04:45:00,59.5,55.0,29.22,West,270,1.0,7.0,86,0.00,,,0.00,Rainwise IP-100,2013-09-05 08:45:00,
2013-09-05 04:50:00,59.3,54.0,29.22,West,270,3.0,9.0,86,0.00,,,0.00,Rainwise IP-100,2013-09-05 08:50:00,
2013-09-05 04:55:00,58.9,55.0,29.21,West,270,2.0,7.0,87,0.00,,,0.00,Rainwise IP-100,2013-09-05 08:55:00,
2013-09-05 05:00:00,58.6,55.0,29.22,WSW,247,4.0,5.0,88,0.00,,,0.00,Rainwise IP-100,2013-09-05 09:00:00,
2013-09-05 05:05:00,58.3,55.0,29.22,West,270,2.0,5.0,89,0.00,,,0.00,Rainwise IP-100,2013-09-05 09:05:00,
2013-09-05 05:10:00,57.9,55.0,29.22,West,270,1.0,5.0,90,0.00,,,0.00,Rainwise IP-100,2013-09-05 09:10:00,
2013-09-05 05:15:00,57.7,54.0,29.22,West,270,2.0,5.0,90,0.00,,,0.00,Rainwise IP-100,2013-09-05 09:15:00,
2013-09-05 05:20:00,57.4,55.0,29.22,SW,225,2.0,5.0,91,0.00,,,0.00,Rainwise IP-100,2013-09-05 09:20:00,
2013-09-05 05:25:00,57.3,54.0,29.22,West,270,3.0,4.0,91,0.00,,,0.00,Rainwise IP-100,2013-09-05 09:25:00,
2013-09-05 05:30:00,57.3,54.0,29.23,WSW,247,2.0,5.0,91,0.00,,,0.00,Rainwise IP-100,2013-09-05 09:30:00,
2013-09-05 05:35:00,57.3,54.0,29.23,West,270,1.0,6.0,91,0.00,,,0.00,Rainwise IP-100,2013-09-05 09:35:00,
2013-09-05 05:40:00,57.3,54.0,29.23,WSW,247,2.0,4.0,91,0.00,,,0.00,Rainwise IP-100,2013-09-05 09:40:00,
2013-09-05 05:45:00,57.3,54.0,29.23,WSW,247,2.0,6.0,91,0.00,,,0.00,Rainwise IP-100,2013-09-05 09:45:00,
2013-09-05 05:50:00,57.3,54.0,29.23,WNW,292,1.0,6.0,91,0.00,,,0.00,Rainwise IP-100,2013-09-05 09:50:00,
2013-09-05 05:55:00,57.3,54.0,29.23,WSW,247,2.0,5.0,92,0.00,,,0.00,Rainwise IP-100,2013-09-05 09:55:00,
2013-09-05 06:00:00,57.3,54.0,29.23,West,270,2.0,5.0,91,0.00,,,0.00,Rainwise IP-100,2013-09-05 10:00:00,
2013-09-05 06:05:00,57.6,55.0,29.24,West,270,4.0,7.0,91,0.00,,,0.00,Rainwise IP-100,2013-09-05 10:05:00,
2013-09-05 06:10:00,57.8,55.0,29.25,West,270,5.0,8.0,91,0.00,,,0.00,Rainwise IP-100,2013-09-05 10:10:00,
2013-09-05 06:15:00,57.9,56.0,29.25,WSW,247,3.0,6.0,91,0.00,,,0.00,Rainwise IP-100,2013-09-05 10:15:00,
2013-09-05 06:20:00,57.8,55.0,29.25,West,270,3.0,6.0,91,0.00,,,0.00,Rainwise IP-100,2013-09-05 10:20:00,
2013-09-05 06:25:00,57.8,55.0,29.25,West,270,3.0,6.0,91,0.00,,,0.00,Rainwise IP-100,2013-09-05 10:25:00,
2013-09-05 06:30:00,57.8,55.0,29.25,West,270,2.0,6.0,91,0.00,,,0.00,Rainwise IP-100,2013-09-05 10:30:00,
2013-09-05 06:35:00,57.8,55.0,29.25,West,270,1.0,7.0,91,0.00,,,0.00,Rainwise IP-100,2013-09-05 10:35:00,
2013-09-05 06:40:00,57.9,56.0,29.25,WSW,247,2.0,6.0,91,0.00,,,0.00,Rainwise IP-100,2013-09-05 10:40:00,
2013-09-05 06:45:00,57.9,56.0,29.25,WNW,292,4.0,5.0,91,0.00,,,0.00,Rainwise IP-100,2013-09-05 10:45:00,
2013-09-05 06:50:00,57.8,55.0,29.26,West,270,4.0,5.0,91,0.00,,,0.00,Rainwise IP-100,2013-09-05 10:50:00,
2013-09-05 06:55:00,57.8,54.0,29.26,WNW,292,2.0,4.0,90,0.00,,,0.00,Rainwise IP-100,2013-09-05 10:55:00,
2013-09-05 07:00:00,57.8,54.0,29.26,WNW,292,2.0,5.0,90,0.00,,,0.00,Rainwise IP-100,2013-09-05 11:00:00,
2013-09-05 07:05:00,57.9,55.0,29.27,WNW,292,1.0,7.0,89,0.00,,,0.00,Rainwise IP-100,2013-09-05 11:05:00,
2013-09-05 07:10:00,57.9,54.0,29.27,WNW,292,4.0,7.0,88,0.00,,,0.00,Rainwise IP-100,2013-09-05 11:10:00,
2013-09-05 07:15:00,57.9,54.0,29.27,West,270,2.0,6.0,87,0.00,,,0.00,Rainwise IP-100,2013-09-05 11:15:00,
2013-09-05 07:20:00,57.9,54.0,29.27,West,270,2.0,6.0,87,0.00,,,0.00,Rainwise IP-100,2013-09-05 11:20:00,
2013-09-05 07:25:00,57.9,54.0,29.27,WNW,292,1.0,6.0,86,0.00,,,0.00,Rainwise IP-100,2013-09-05 11:25:00,
2013-09-05 07:30:00,57.9,54.0,29.27,West,270,3.0,7.0,86,0.00,,,0.00,Rainwise IP-100,2013-09-05 11:30:00,
2013-09-05 07:35:00,57.9,54.0,29.27,WNW,292,5.0,7.0,85,0.00,,,0.00,Rainwise IP-100,2013-09-05 11:35:00,
2013-09-05 07:40:00,57.9,53.0,29.27,WNW,292,2.0,6.0,84,0.00,,,0.00,Rainwise IP-100,2013-09-05 11:40:00,
2013-09-05 07:45:00,57.9,53.0,29.27,West,270,1.0,6.0,84,0.00,,,0.00,Rainwise IP-100,2013-09-05 11:45:00,
2013-09-05 07:50:00,57.9,53.0,29.27,WSW,247,2.0,5.0,84,0.00,,,0.00,Rainwise IP-100,2013-09-05 11:50:00,
2013-09-05 07:55:00,58.0,53.0,29.27,WNW,292,1.0,6.0,84,0.00,,,0.00,Rainwise IP-100,2013-09-05 11:55:00,
2013-09-05 08:00:00,58.1,53.0,29.27,WNW,292,1.0,5.0,83,0.00,,,0.00,Rainwise IP-100,2013-09-05 12:00:00,
2013-09-05 08:05:00,58.3,53.0,29.27,WNW,292,2.0,5.0,83,0.00,,,0.00,Rainwise IP-100,2013-09-05 12:05:00,
2013-09-05 08:10:00,58.4,53.0,29.27,West,270,3.0,5.0,82,0.00,,,0.00,Rainwise IP-100,2013-09-05 12:10:00,
2013-09-05 08:15:00,58.7,53.0,29.28,West,270,2.0,6.0,82,0.00,,,0.00,Rainwise IP-100,2013-09-05 12:15:00,
2013-09-05 08:20:00,58.9,53.0,29.28,West,270,1.0,6.0,82,0.00,,,0.00,Rainwise IP-100,2013-09-05 12:20:00,
2013-09-05 08:25:00,59.1,53.0,29.28,WNW,292,5.0,5.0,81,0.00,,,0.00,Rainwise IP-100,2013-09-05 12:25:00,
2013-09-05 08:30:00,59.3,53.0,29.28,WNW,292,3.0,6.0,79,0.00,,,0.00,Rainwise IP-100,2013-09-05 12:30:00,
2013-09-05 08:35:00,59.5,53.0,29.28,West,270,2.0,5.0,80,0.00,,,0.00,Rainwise IP-100,2013-09-05 12:35:00,
2013-09-05 08:40:00,59.6,52.0,29.28,WNW,292,1.0,5.0,77,0.00,,,0.00,Rainwise IP-100,2013-09-05 12:40:00,
2013-09-05 08:45:00,59.8,53.0,29.28,WNW,292,2.0,4.0,79,0.00,,,0.00,Rainwise IP-100,2013-09-05 12:45:00,
2013-09-05 08:50:00,60.0,53.0,29.28,NW,315,2.0,4.0,77,0.00,,,0.00,Rainwise IP-100,2013-09-05 12:50:00,
2013-09-05 08:55:00,60.6,53.0,29.29,NW,315,2.0,5.0,75,0.00,,,0.00,Rainwise IP-100,2013-09-05 12:55:00,
2013-09-05 09:00:00,61.0,53.0,29.29,West,270,4.0,6.0,75,0.00,,,0.00,Rainwise IP-100,2013-09-05 13:00:00,
2013-09-05 09:05:00,61.4,53.0,29.29,NW,315,2.0,6.0,73,0.00,,,0.00,Rainwise IP-100,2013-09-05 13:05:00,
2013-09-05 09:10:00,61.7,53.0,29.30,NNW,337,3.0,5.0,72,0.00,,,0.00,Rainwise IP-100,2013-09-05 13:10:00,
2013-09-05 09:15:00,61.8,52.0,29.30,North,360,3.0,5.0,71,0.00,,,0.00,Rainwise IP-100,2013-09-05 13:15:00,
2013-09-05 09:20:00,61.9,52.0,29.30,NNE,22,2.0,4.0,69,0.00,,,0.00,Rainwise IP-100,2013-09-05 13:20:00,
2013-09-05 09:25:00,62.8,53.0,29.30,North,360,4.0,4.0,70,0.00,,,0.00,Rainwise IP-100,2013-09-05 13:25:00,
2013-09-05 09:30:00,63.1,52.0,29.30,NW,315,4.0,6.0,67,0.00,,,0.00,Rainwise IP-100,2013-09-05 13:30:00,
2013-09-05 09:35:00,63.4,50.0,29.31,NNW,337,6.0,9.0,61,0.00,,,0.00,Rainwise IP-100,2013-09-05 13:35:00,
2013-09-05 09:40:00,64.1,53.0,29.31,North,360,6.0,8.0,66,0.00,,,0.00,Rainwise IP-100,2013-09-05 13:40:00,
2013-09-05 09:45:00,65.1,50.0,29.31,NW,315,2.0,11.0,60,0.00,,,0.00,Rainwise IP-100,2013-09-05 13:45:00,
2013-09-05 09:50:00,64.4,49.0,29.32,NNW,337,5.0,10.0,57,0.00,,,0.00,Rainwise IP-100,2013-09-05 13:50:00,
2013-09-05 09:55:00,63.6,50.0,29.32,NNW,337,4.0,9.0,62,0.00,,,0.00,Rainwise IP-100,2013-09-05 13:55:00,
2013-09-05 10:00:00,63.7,49.0,29.32,NW,315,7.0,9.0,59,0.00,,,0.00,Rainwise IP-100,2013-09-05 14:00:00,
2013-09-05 10:05:00,64.1,50.0,29.32,NW,315,4.0,8.0,60,0.00,,,0.00,Rainwise IP-100,2013-09-05 14:05:00,
2013-09-05 10:10:00,65.1,49.0,29.32,North,360,7.0,10.0,56,0.00,,,0.00,Rainwise IP-100,2013-09-05 14:10:00,
2013-09-05 10:15:00,64.4,50.0,29.32,North,360,6.0,12.0,59,0.00,,,0.00,Rainwise IP-100,2013-09-05 14:15:00,
2013-09-05 10:20:00,64.5,50.0,29.33,NW,315,6.0,11.0,61,0.00,,,0.00,Rainwise IP-100,2013-09-05 14:20:00,
2013-09-05 10:25:00,64.7,48.0,29.32,NW,315,6.0,9.0,56,0.00,,,0.00,Rainwise IP-100,2013-09-05 14:25:00,
2013-09-05 10:30:00,64.9,47.0,29.33,NNW,337,7.0,11.0,54,0.00,,,0.00,Rainwise IP-100,2013-09-05 14:30:00,
2013-09-05 10:35:00,65.3,50.0,29.33,West,270,4.0,9.0,58,0.00,,,0.00,Rainwise IP-100,2013-09-05 14:35:00,
2013-09-05 10:40:00,65.1,49.0,29.33,North,360,6.0,9.0,57,0.00,,,0.00,Rainwise IP-100,2013-09-05 14:40:00,
2013-09-05 10:45:00,65.2,49.0,29.33,NW,315,4.0,9.0,57,0.00,,,0.00,Rainwise IP-100,2013-09-05 14:45:00,
2013-09-05 10:50:00,65.6,49.0,29.33,NNW,337,5.0,8.0,55,0.00,,,0.00,Rainwise IP-100,2013-09-05 14:50:00,
2013-09-05 10:55:00,64.9,50.0,29.33,NW,315,3.0,9.0,58,0.00,,,0.00,Rainwise IP-100,2013-09-05 14:55:00,
2013-09-05 11:00:00,65.4,50.0,29.33,NW,315,6.0,9.0,57,0.00,,,0.00,Rainwise IP-100,2013-09-05 15:00:00,
2013-09-05 11:05:00,66.4,48.0,29.33,North,360,6.0,10.0,53,0.00,,,0.00,Rainwise IP-100,2013-09-05 15:05:00,
2013-09-05 11:10:00,66.5,48.0,29.32,NNW,337,6.0,11.0,51,0.00,,,0.00,Rainwise IP-100,2013-09-05 15:10:00,
2013-09-05 11:15:00,66.8,50.0,29.32,West,270,7.0,11.0,54,0.00,,,0.00,Rainwise IP-100,2013-09-05 15:15:00,
2013-09-05 11:20:00,65.9,49.0,29.32,NW,315,4.0,11.0,54,0.00,,,0.00,Rainwise IP-100,2013-09-05 15:20:00,
2013-09-05 11:25:00,66.7,50.0,29.32,West,270,3.0,9.0,54,0.00,,,0.00,Rainwise IP-100,2013-09-05 15:25:00,
2013-09-05 11:30:00,65.7,49.0,29.33,NW,315,5.0,12.0,55,0.00,,,0.00,Rainwise IP-100,2013-09-05 15:30:00,
2013-09-05 11:35:00,66.2,50.0,29.33,WNW,292,4.0,11.0,57,0.00,,,0.00,Rainwise IP-100,2013-09-05 15:35:00,
2013-09-05 11:40:00,67.1,51.0,29.33,WNW,292,4.0,10.0,56,0.00,,,0.00,Rainwise IP-100,2013-09-05 15:40:00,
2013-09-05 11:45:00,65.7,49.0,29.33,NW,315,4.0,8.0,55,0.00,,,0.00,Rainwise IP-100,2013-09-05 15:45:00,
2013-09-05 11:50:00,67.0,50.0,29.33,WNW,292,6.0,9.0,55,0.00,,,0.00,Rainwise IP-100,2013-09-05 15:50:00,
2013-09-05 11:55:00,66.8,50.0,29.32,NW,315,5.0,9.0,55,0.00,,,0.00,Rainwise IP-100,2013-09-05 15:55:00,
2013-09-05 12:00:00,66.5,51.0,29.32,NW,315,1.0,13.0,57,0.00,,,0.00,Rainwise IP-100,2013-09-05 16:00:00,
2013-09-05 12:05:00,67.6,50.0,29.32,NNW,337,5.0,10.0,53,0.00,,,0.00,Rainwise IP-100,2013-09-05 16:05:00,
2013-09-05 12:10:00,67.1,50.0,29.33,NW,315,4.0,9.0,53,0.00,,,0.00,Rainwise IP-100,2013-09-05 16:10:00,
2013-09-05 12:15:00,66.3,50.0,29.32,West,270,4.0,8.0,56,0.00,,,0.00,Rainwise IP-100,2013-09-05 16:15:00,
2013-09-05 12:20:00,67.6,52.0,29.32,NNE,22,7.0,7.0,57,0.00,,,0.00,Rainwise IP-100,2013-09-05 16:20:00,
2013-09-05 12:25:00,65.8,51.0,29.32,NNW,337,6.0,12.0,60,0.00,,,0.00,Rainwise IP-100,2013-09-05 16:25:00,
2013-09-05 12:30:00,64.8,50.0,29.33,NNW,337,4.0,9.0,60,0.00,,,0.00,Rainwise IP-100,2013-09-05 16:30:00,
2013-09-05 12:35:00,64.4,50.0,29.33,NW,315,4.0,7.0,61,0.00,,,0.00,Rainwise IP-100,2013-09-05 16:35:00,
2013-09-05 12:40:00,64.1,50.0,29.33,NW,315,2.0,7.0,62,0.00,,,0.00,Rainwise IP-100,2013-09-05 16:40:00,
2013-09-05 12:45:00,63.9,52.0,29.32,NW,315,2.0,7.0,65,0.00,,,0.00,Rainwise IP-100,2013-09-05 16:45:00,
2013-09-05 12:50:00,65.2,51.0,29.32,North,360,6.0,6.0,61,0.00,,,0.00,Rainwise IP-100,2013-09-05 16:50:00,
2013-09-05 12:55:00,65.9,51.0,29.32,WNW,292,9.0,11.0,59,0.00,,,0.00,Rainwise IP-100,2013-09-05 16:55:00,
2013-09-05 13:00:00,66.9,51.0,29.33,North,360,7.0,14.0,57,0.00,,,0.00,Rainwise IP-100,2013-09-05 17:00:00,
2013-09-05 13:06:00,66.9,50.0,29.32,NW,315,3.0,14.0,55,0.00,,,0.00,Rainwise IP-100,2013-09-05 17:06:00,
2013-09-05 13:11:00,66.0,50.0,29.33,NW,315,6.0,9.0,56,0.00,,,0.00,Rainwise IP-100,2013-09-05 17:11:00,
2013-09-05 13:16:00,65.4,51.0,29.33,WNW,292,6.0,9.0,61,0.00,,,0.00,Rainwise IP-100,2013-09-05 17:16:00,
2013-09-05 13:21:00,65.1,51.0,29.33,WNW,292,3.0,6.0,62,0.00,,,0.00,Rainwise IP-100,2013-09-05 17:21:00,
2013-09-05 13:26:00,65.9,51.0,29.33,NW,315,8.0,8.0,59,0.00,,,0.00,Rainwise IP-100,2013-09-05 17:26:00,
2013-09-05 13:31:00,66.9,53.0,29.33,NW,315,7.0,11.0,60,0.00,,,0.00,Rainwise IP-100,2013-09-05 17:31:00,
2013-09-05 13:36:00,67.4,52.0,29.33,West,270,6.0,11.0,58,0.00,,,0.00,Rainwise IP-100,2013-09-05 17:36:00,
2013-09-05 13:41:00,67.5,53.0,29.33,West,270,2.0,11.0,59,0.00,,,0.00,Rainwise IP-100,2013-09-05 17:41:00,
2013-09-05 13:46:00,67.2,52.0,29.33,NW,315,2.0,11.0,58,0.00,,,0.00,Rainwise IP-100,2013-09-05 17:46:00,
2013-09-05 13:51:00,65.9,51.0,29.34,West,270,6.0,12.0,59,0.00,,,0.00,Rainwise IP-100,2013-09-05 17:51:00,
2013-09-05 13:56:00,65.6,51.0,29.34,WSW,247,4.0,9.0,61,0.00,,,0.00,Rainwise IP-100,2013-09-05 17:56:00,
2013-09-05 14:01:00,64.9,51.0,29.34,NW,315,5.0,11.0,61,0.00,,,0.00,Rainwise IP-100,2013-09-05 18:01:00,
2013-09-05 14:06:00,64.1,51.0,29.34,NW,315,6.0,14.0,63,0.00,,,0.00,Rainwise IP-100,2013-09-05 18:06:00,
2013-09-05 14:11:00,63.7,51.0,29.34,NW,315,9.0,11.0,64,0.00,,,0.00,Rainwise IP-100,2013-09-05 18:11:00,
2013-09-05 14:16:00,63.9,51.0,29.34,NW,315,4.0,12.0,64,0.00,,,0.00,Rainwise IP-100,2013-09-05 18:16:00,
2013-09-05 14:21:00,65.6,51.0,29.33,NW,315,2.0,9.0,61,0.00,,,0.00,Rainwise IP-100,2013-09-05 18:21:00,
2013-09-05 14:26:00,67.1,53.0,29.33,NNW,337,9.0,13.0,59,0.00,,,0.00,Rainwise IP-100,2013-09-05 18:26:00,
2013-09-05 14:31:00,66.7,50.0,29.33,NNW,337,6.0,18.0,56,0.00,,,0.00,Rainwise IP-100,2013-09-05 18:31:00,
2013-09-05 14:36:00,65.1,47.0,29.33,NNW,337,7.0,14.0,54,0.00,,,0.00,Rainwise IP-100,2013-09-05 18:36:00,
2013-09-05 14:41:00,66.2,50.0,29.33,NW,315,7.0,16.0,57,0.00,,,0.00,Rainwise IP-100,2013-09-05 18:41:00,
2013-09-05 14:46:00,65.4,47.0,29.33,NW,315,7.0,15.0,53,0.00,,,0.00,Rainwise IP-100,2013-09-05 18:46:00,
2013-09-05 14:51:00,65.1,47.0,29.34,NNW,337,8.0,13.0,53,0.00,,,0.00,Rainwise IP-100,2013-09-05 18:51:00,
2013-09-05 14:56:00,66.7,49.0,29.33,NW,315,4.0,15.0,53,0.00,,,0.00,Rainwise IP-100,2013-09-05 18:56:00,
2013-09-05 15:01:00,67.3,48.0,29.33,NNW,337,6.0,12.0,50,0.00,,,0.00,Rainwise IP-100,2013-09-05 19:01:00,
2013-09-05 15:06:00,66.9,47.0,29.33,NW,315,9.0,16.0,48,0.00,,,0.00,Rainwise IP-100,2013-09-05 19:06:00,
2013-09-05 15:11:00,64.9,47.0,29.33,NNW,337,4.0,12.0,52,0.00,,,0.00,Rainwise IP-100,2013-09-05 19:11:00,
2013-09-05 15:16:00,64.3,47.0,29.33,NW,315,13.0,16.0,54,0.00,,,0.00,Rainwise IP-100,2013-09-05 19:16:00,
2013-09-05 15:21:00,65.3,46.0,29.33,NW,315,7.0,16.0,50,0.00,,,0.00,Rainwise IP-100,2013-09-05 19:21:00,
2013-09-05 15:26:00,66.1,46.0,29.33,North,360,11.0,17.0,49,0.00,,,0.00,Rainwise IP-100,2013-09-05 19:26:00,
2013-09-05 15:31:00,66.3,46.0,29.34,NNW,337,9.0,17.0,48,0.00,,,0.00,Rainwise IP-100,2013-09-05 19:31:00,
2013-09-05 15:36:00,65.3,46.0,29.34,NW,315,7.0,17.0,50,0.00,,,0.00,Rainwise IP-100,2013-09-05 19:36:00,
2013-09-05 15:41:00,65.6,46.0,29.34,NW,315,6.0,16.0,49,0.00,,,0.00,Rainwise IP-100,2013-09-05 19:41:00,
2013-09-05 15:46:00,65.9,47.0,29.34,North,360,21.0,21.0,50,0.00,,,0.00,Rainwise IP-100,2013-09-05 19:46:00,
2013-09-05 15:51:00,65.3,45.0,29.34,NW,315,11.0,21.0,49,0.00,,,0.00,Rainwise IP-100,2013-09-05 19:51:00,
2013-09-05 15:56:00,65.4,47.0,29.34,NNW,337,13.0,17.0,53,0.00,,,0.00,Rainwise IP-100,2013-09-05 19:56:00,
2013-09-05 16:01:00,65.4,47.0,29.34,North,360,7.0,16.0,50,0.00,,,0.00,Rainwise IP-100,2013-09-05 20:01:00,
2013-09-05 16:06:00,66.1,48.0,29.34,NNW,337,2.0,14.0,53,0.00,,,0.00,Rainwise IP-100,2013-09-05 20:06:00,
2013-09-05 16:11:00,65.7,46.0,29.35,NW,315,8.0,13.0,49,0.00,,,0.00,Rainwise IP-100,2013-09-05 20:11:00,
2013-09-05 16:16:00,65.7,47.0,29.35,NNW,337,8.0,13.0,53,0.00,,,0.00,Rainwise IP-100,2013-09-05 20:16:00,
2013-09-05 16:21:00,65.3,46.0,29.35,NNW,337,8.0,17.0,50,0.00,,,0.00,Rainwise IP-100,2013-09-05 20:21:00,
2013-09-05 16:26:00,65.2,45.0,29.35,NW,315,10.0,14.0,49,0.00,,,0.00,Rainwise IP-100,2013-09-05 20:26:00,
2013-09-05 16:31:00,65.0,47.0,29.35,North,360,8.0,15.0,52,0.00,,,0.00,Rainwise IP-100,2013-09-05 20:31:00,
2013-09-05 16:36:00,64.9,45.0,29.35,North,360,16.0,16.0,49,0.00,,,0.00,Rainwise IP-100,2013-09-05 20:36:00,
2013-09-05 16:41:00,64.0,47.0,29.35,WNW,292,7.0,16.0,53,0.00,,,0.00,Rainwise IP-100,2013-09-05 20:41:00,
2013-09-05 16:46:00,64.1,46.0,29.36,NNW,337,7.0,14.0,51,0.00,,,0.00,Rainwise IP-100,2013-09-05 20:46:00,
2013-09-05 16:51:00,64.1,46.0,29.35,NNW,337,6.0,16.0,51,0.00,,,0.00,Rainwise IP-100,2013-09-05 20:51:00,
2013-09-05 16:56:00,63.7,46.0,29.35,NNW,337,4.0,14.0,52,0.00,,,0.00,Rainwise IP-100,2013-09-05 20:56:00,
2013-09-05 17:01:00,64.1,46.0,29.36,NNW,337,4.0,14.0,51,0.00,,,0.00,Rainwise IP-100,2013-09-05 21:01:00,
2013-09-05 17:06:00,64.8,46.0,29.36,West,270,4.0,11.0,50,0.00,,,0.00,Rainwise IP-100,2013-09-05 21:06:00,
2013-09-05 17:11:00,64.6,45.0,29.36,North,360,6.0,11.0,49,0.00,,,0.00,Rainwise IP-100,2013-09-05 21:11:00,
2013-09-05 17:16:00,64.3,45.0,29.36,North,360,6.0,12.0,50,0.00,,,0.00,Rainwise IP-100,2013-09-05 21:16:00,
2013-09-05 17:21:00,63.7,45.0,29.36,North,360,11.0,12.0,50,0.00,,,0.00,Rainwise IP-100,2013-09-05 21:21:00,
2013-09-05 17:26:00,63.1,45.0,29.36,NNW,337,6.0,13.0,52,0.00,,,0.00,Rainwise IP-100,2013-09-05 21:26:00,
2013-09-05 17:31:00,62.9,46.0,29.37,NW,315,5.0,11.0,54,0.00,,,0.00,Rainwise IP-100,2013-09-05 21:31:00,
2013-09-05 17:36:00,63.1,46.0,29.36,NW,315,2.0,9.0,53,0.00,,,0.00,Rainwise IP-100,2013-09-05 21:36:00,
2013-09-05 17:41:00,63.3,45.0,29.36,NW,315,6.0,12.0,52,0.00,,,0.00,Rainwise IP-100,2013-09-05 21:41:00,
2013-09-05 17:46:00,63.2,45.0,29.36,NW,315,5.0,12.0,51,0.00,,,0.00,Rainwise IP-100,2013-09-05 21:46:00,
2013-09-05 17:51:00,63.3,45.0,29.37,NNW,337,4.0,11.0,52,0.00,,,0.00,Rainwise IP-100,2013-09-05 21:51:00,
2013-09-05 17:56:00,63.5,46.0,29.37,NW,315,4.0,7.0,52,0.00,,,0.00,Rainwise IP-100,2013-09-05 21:56:00,
2013-09-05 18:01:00,62.7,45.0,29.37,NW,315,3.0,12.0,53,0.00,,,0.00,Rainwise IP-100,2013-09-05 22:01:00,
2013-09-05 18:06:00,62.9,46.0,29.37,NNW,337,4.0,12.0,53,0.00,,,0.00,Rainwise IP-100,2013-09-05 22:06:00,
2013-09-05 18:11:00,62.4,46.0,29.37,NW,315,4.0,11.0,55,0.00,,,0.00,Rainwise IP-100,2013-09-05 22:11:00,
2013-09-05 18:16:00,62.2,45.0,29.37,NNW,337,4.0,11.0,53,0.00,,,0.00,Rainwise IP-100,2013-09-05 22:16:00,
2013-09-05 18:21:00,62.0,45.0,29.37,North,360,5.0,12.0,54,0.00,,,0.00,Rainwise IP-100,2013-09-05 22:21:00,
2013-09-05 18:26:00,62.1,46.0,29.38,NW,315,7.0,8.0,55,0.00,,,0.00,Rainwise IP-100,2013-09-05 22:26:00,
2013-09-05 18:31:00,61.6,45.0,29.38,NNW,337,5.0,11.0,55,0.00,,,0.00,Rainwise IP-100,2013-09-05 22:31:00,
2013-09-05 18:36:00,61.6,45.0,29.38,NNW,337,3.0,10.0,55,0.00,,,0.00,Rainwise IP-100,2013-09-05 22:36:00,
2013-09-05 18:41:00,61.2,45.0,29.38,NW,315,6.0,8.0,56,0.00,,,0.00,Rainwise IP-100,2013-09-05 22:41:00,
2013-09-05 18:46:00,60.9,46.0,29.38,NW,315,2.0,8.0,57,0.00,,,0.00,Rainwise IP-100,2013-09-05 22:46:00,
2013-09-05 18:51:00,60.8,46.0,29.38,NNW,337,6.0,8.0,59,0.00,,,0.00,Rainwise IP-100,2013-09-05 22:51:00,
2013-09-05 18:56:00,60.5,46.0,29.37,NNW,337,4.0,8.0,59,0.00,,,0.00,Rainwise IP-100,2013-09-05 22:56:00,
2013-09-05 19:01:00,60.1,46.0,29.38,NW,315,4.0,7.0,59,0.00,,,0.00,Rainwise IP-100,2013-09-05 23:01:00,
2013-09-05 19:06:00,59.8,46.0,29.38,NNW,337,3.0,6.0,60,0.00,,,0.00,Rainwise IP-100,2013-09-05 23:06:00,
2013-09-05 19:11:00,59.3,46.0,29.38,NW,315,2.0,6.0,62,0.00,,,0.00,Rainwise IP-100,2013-09-05 23:11:00,
2013-09-05 19:16:00,58.7,47.0,29.38,NNW,337,2.0,4.0,63,0.00,,,0.00,Rainwise IP-100,2013-09-05 23:16:00,
2013-09-05 19:21:00,57.9,46.0,29.38,NNW,337,2.0,6.0,64,0.00,,,0.00,Rainwise IP-100,2013-09-05 23:21:00,
2013-09-05 19:26:00,57.2,46.0,29.38,NNW,337,2.0,5.0,66,0.00,,,0.00,Rainwise IP-100,2013-09-05 23:26:00,
2013-09-05 19:31:00,56.7,45.0,29.38,NNW,337,4.0,4.0,66,0.00,,,0.00,Rainwise IP-100,2013-09-05 23:31:00,
2013-09-05 19:36:00,56.4,46.0,29.38,NW,315,2.0,5.0,67,0.00,,,0.00,Rainwise IP-100,2013-09-05 23:36:00,
2013-09-05 19:41:00,56.2,45.0,29.38,NW,315,2.0,4.0,66,0.00,,,0.00,Rainwise IP-100,2013-09-05 23:41:00,
2013-09-05 19:46:00,55.9,45.0,29.38,NW,315,2.0,4.0,67,0.00,,,0.00,Rainwise IP-100,2013-09-05 23:46:00,
2013-09-05 19:52:00,55.6,45.0,29.38,NW,315,2.0,4.0,67,0.00,,,0.00,Rainwise IP-100,2013-09-05 23:52:00,
2013-09-05 19:57:00,55.4,44.0,29.38,WNW,292,2.0,5.0,67,0.00,,,0.00,Rainwise IP-100,2013-09-05 23:57:00,
2013-09-05 20:02:00,55.3,44.0,29.38,WNW,292,3.0,4.0,67,0.00,,,0.00,Rainwise IP-100,2013-09-06 00:02:00,
2013-09-05 20:07:00,55.2,44.0,29.38,WNW,292,2.0,5.0,65,0.00,,,0.00,Rainwise IP-100,2013-09-06 00:07:00,
2013-09-05 20:12:00,55.2,43.0,29.38,WNW,292,2.0,6.0,64,0.00,,,0.00,Rainwise IP-100,2013-09-06 00:12:00,
2013-09-05 20:17:00,54.9,43.0,29.38,WNW,292,4.0,5.0,64,0.00,,,0.00,Rainwise IP-100,2013-09-06 00:17:00,
2013-09-05 20:22:00,54.9,43.0,29.39,WNW,292,2.0,5.0,64,0.00,,,0.00,Rainwise IP-100,2013-09-06 00:22:00,
2013-09-05 20:27:00,54.5,44.0,29.39,WNW,292,1.0,5.0,67,0.00,,,0.00,Rainwise IP-100,2013-09-06 00:27:00,
2013-09-05 20:32:00,53.9,44.0,29.39,West,270,2.0,3.0,70,0.00,,,0.00,Rainwise IP-100,2013-09-06 00:32:00,
2013-09-05 20:37:00,53.4,44.0,29.39,West,270,2.0,4.0,71,0.00,,,0.00,Rainwise IP-100,2013-09-06 00:37:00,
2013-09-05 20:42:00,53.4,44.0,29.39,WSW,247,1.0,4.0,70,0.00,,,0.00,Rainwise IP-100,2013-09-06 00:42:00,
2013-09-05 20:47:00,53.3,43.0,29.39,WNW,292,2.0,4.0,70,0.00,,,0.00,Rainwise IP-100,2013-09-06 00:47:00,
2013-09-05 20:52:00,53.2,43.0,29.39,West,270,1.0,4.0,70,0.00,,,0.00,Rainwise IP-100,2013-09-06 00:52:00,
2013-09-05 20:57:00,52.9,43.0,29.39,West,270,2.0,4.0,71,0.00,,,0.00,Rainwise IP-100,2013-09-06 00:57:00,
2013-09-05 21:02:00,52.8,44.0,29.39,West,270,2.0,4.0,72,0.00,,,0.00,Rainwise IP-100,2013-09-06 01:02:00,
2013-09-05 21:07:00,52.5,44.0,29.39,West,270,3.0,4.0,73,0.00,,,0.00,Rainwise IP-100,2013-09-06 01:07:00,
2013-09-05 21:12:00,52.1,44.0,29.39,West,270,2.0,4.0,75,0.00,,,0.00,Rainwise IP-100,2013-09-06 01:12:00,
2013-09-05 21:17:00,51.9,44.0,29.39,WSW,247,2.0,3.0,74,0.00,,,0.00,Rainwise IP-100,2013-09-06 01:17:00,
2013-09-05 21:22:00,51.9,44.0,29.39,WSW,247,4.0,4.0,74,0.00,,,0.00,Rainwise IP-100,2013-09-06 01:22:00,
2013-09-05 21:27:00,51.7,44.0,29.39,West,270,1.0,4.0,75,0.00,,,0.00,Rainwise IP-100,2013-09-06 01:27:00,
2013-09-05 21:32:00,51.5,45.0,29.39,West,270,1.0,4.0,76,0.00,,,0.00,Rainwise IP-100,2013-09-06 01:32:00,
2013-09-05 21:37:00,51.3,44.0,29.39,WSW,247,2.0,3.0,76,0.00,,,0.00,Rainwise IP-100,2013-09-06 01:37:00,
2013-09-05 21:42:00,51.2,44.0,29.39,WSW,247,2.0,4.0,76,0.00,,,0.00,Rainwise IP-100,2013-09-06 01:42:00,
2013-09-05 21:47:00,51.3,44.0,29.40,WSW,247,1.0,4.0,76,0.00,,,0.00,Rainwise IP-100,2013-09-06 01:47:00,
2013-09-05 21:52:00,51.3,44.0,29.40,WSW,247,2.0,4.0,76,0.00,,,0.00,Rainwise IP-100,2013-09-06 01:52:00,
2013-09-05 21:57:00,51.3,44.0,29.40,WSW,247,2.0,4.0,76,0.00,,,0.00,Rainwise IP-100,2013-09-06 01:57:00,
2013-09-05 22:02:00,51.4,44.0,29.40,West,270,1.0,4.0,77,0.00,,,0.00,Rainwise IP-100,2013-09-06 02:02:00,
2013-09-05 22:07:00,51.2,45.0,29.39,West,270,2.0,4.0,78,0.00,,,0.00,Rainwise IP-100,2013-09-06 02:07:00,
2013-09-05 22:12:00,50.9,45.0,29.39,WNW,292,2.0,4.0,78,0.00,,,0.00,Rainwise IP-100,2013-09-06 02:12:00,
2013-09-05 22:17:00,50.9,45.0,29.39,WSW,247,2.0,6.0,78,0.00,,,0.00,Rainwise IP-100,2013-09-06 02:17:00,
2013-09-05 22:22:00,51.0,44.0,29.40,West,270,2.0,6.0,77,0.00,,,0.00,Rainwise IP-100,2013-09-06 02:22:00,
2013-09-05 22:27:00,51.3,44.0,29.40,WSW,247,2.0,4.0,76,0.00,,,0.00,Rainwise IP-100,2013-09-06 02:27:00,
2013-09-05 22:32:00,51.5,44.0,29.39,West,270,2.0,6.0,75,0.00,,,0.00,Rainwise IP-100,2013-09-06 02:32:00,
2013-09-05 22:37:00,51.4,44.0,29.39,WSW,247,2.0,6.0,76,0.00,,,0.00,Rainwise IP-100,2013-09-06 02:37:00,
2013-09-05 22:42:00,51.3,44.0,29.39,West,270,4.0,5.0,77,0.00,,,0.00,Rainwise IP-100,2013-09-06 02:42:00,
2013-09-05 22:47:00,51.1,44.0,29.39,WSW,247,2.0,6.0,77,0.00,,,0.00,Rainwise IP-100,2013-09-06 02:47:00,
2013-09-05 22:52:00,50.9,45.0,29.39,WSW,247,3.0,6.0,78,0.00,,,0.00,Rainwise IP-100,2013-09-06 02:52:00,
2013-09-05 22:57:00,50.9,45.0,29.39,West,270,1.0,6.0,78,0.00,,,0.00,Rainwise IP-100,2013-09-06 02:57:00,
2013-09-05 23:02:00,50.9,45.0,29.39,WNW,292,6.0,7.0,78,0.00,,,0.00,Rainwise IP-100,2013-09-06 03:02:00,
2013-09-05 23:07:00,50.9,45.0,29.40,WSW,247,2.0,6.0,78,0.00,,,0.00,Rainwise IP-100,2013-09-06 03:07:00,
2013-09-05 23:12:00,50.9,45.0,29.40,WNW,292,1.0,6.0,78,0.00,,,0.00,Rainwise IP-100,2013-09-06 03:12:00,
2013-09-05 23:17:00,50.8,44.0,29.40,West,270,3.0,6.0,78,0.00,,,0.00,Rainwise IP-100,2013-09-06 03:17:00,
2013-09-05 23:22:00,50.7,44.0,29.39,WSW,247,4.0,6.0,78,0.00,,,0.00,Rainwise IP-100,2013-09-06 03:22:00,
2013-09-05 23:27:00,50.7,44.0,29.39,WSW,247,4.0,7.0,78,0.00,,,0.00,Rainwise IP-100,2013-09-06 03:27:00,
2013-09-05 23:32:00,50.5,44.0,29.39,West,270,6.0,6.0,79,0.00,,,0.00,Rainwise IP-100,2013-09-06 03:32:00,
2013-09-05 23:37:00,50.3,43.0,29.39,West,270,2.0,5.0,79,0.00,,,0.00,Rainwise IP-100,2013-09-06 03:37:00,
2013-09-05 23:42:00,50.2,43.0,29.39,WNW,292,2.0,5.0,79,0.00,,,0.00,Rainwise IP-100,2013-09-06 03:42:00,
2013-09-05 23:47:00,50.2,43.0,29.39,WSW,247,4.0,6.0,79,0.00,,,0.00,Rainwise IP-100,2013-09-06 03:47:00,
2013-09-05 23:52:00,50.2,43.0,29.39,WSW,247,2.0,5.0,79,0.00,,,0.00,Rainwise IP-100,2013-09-06 03:52:00,
2013-09-05 23:57:00,50.1,43.0,29.39,West,270,2.0,4.0,79,0.00,,,0.00,Rainwise IP-100,2013-09-06 03:57:00,